Hit Tracker is now ESPN Home Run Tracker! Hit Tracker founder Greg Rybarczyk is now collaborating with the ESPN Stats & Information Group to continue tracking all MLB home runs, and helping baseball fans know "How Far It Really Went!™" Please credit any information on this site to ESPN Stats & Information Group. For more information and analysis on home runs, please contact founder Greg Rybarczyk. E-Mail ESPN Home Run Tracker
Main Page | Ballparks | Park Overlays | Glossary | Highlight Homers | Feedback | Bio | 3 Types of HR's | AAA Home Run Derby Last Updated: October 1, 2016, 9:49 am PST
If you want to know "How Far It Really Went!", then you've come to the right place! Welcome to the ESPN Home Run Tracker, where you can find accurate, transparently verifiable distances for every home run hit in MLB games. Please also check out the ESPN MLB Scoreboard throughout the 2016 season! Contact us at grybar@hittrackeronline.com.
Season:
Ballpark detail for PETCO Park
Ballpark # of Home Runs HR per game Avg.
True
Distance
Avg.
Speed
Off
Bat
Avg.
Std.
Dist.
PETCO Park 176 2.17 395.1 104.2 395.8

Scatter Plot of Home Runs PETCO Park
 Overlay Ballpark:
Without range rings   With range rings

2016 Season Home Runs for PETCO Park
Click headers to sort
Date Video Path Hitter Hitter
Team
Pitcher Pitcher
Team
 ^
INN Ballpark Type/
Luck
True
Dist.
Speed
Off
Bat
Elev.
Angle
Horiz.
Angle
Apex Impact Due To: Std.
Dist.
#
Parks
Wind Temp. Alt.
06/16/16 Video View Myers, Wil SD Roark, Tanner WSH 5 PETCO Park PL 374 113.9 20.2 123.4 48 -2 0 0 377 30
06/17/16 Video View Norris, Derek SD Ross, Joe WSH 6 PETCO Park JE 348 108.9 20.2 128.3 43 1 0 0 347 8
06/18/16 Video View Myers, Wil SD Scherzer, Max WSH 1 PETCO Park PL 370 99.0 28.5 66.8 78 0 0 0 370 26
04/22/16 Video View Myers, Wil SD Wainwright, Adam STL 1 PETCO Park PL 419 105.0 23.6 86.9 88 -1 0 0 421 26
04/24/16 Video View Bethancourt, Christian SD Leake, Mike STL 4 PETCO Park PL/L 420 99.9 32.9 96.1 109 24 -1 0 396 5
05/17/16 Video View Kemp, Matt SD Bumgarner, Madison SF 9 PETCO Park PL 380 105.4 35.6 115.4 135 -6 -2 0 389 30
07/15/16 Video View Rosales, Adam SD Bumgarner, Madison SF 4 PETCO Park PL 360 105.3 24.2 126.6 59 -2 0 0 363 29
07/15/16 Video View Myers, Wil SD Bumgarner, Madison SF 5 PETCO Park JE 411 100.7 28.0 88.8 97 3 0 0 408 13
07/16/16 Video View Schimpf, Ryan SD Samardzija, Jeff SF 2 PETCO Park PL/L 382 96.8 31.0 101.5 97 3 -1 0 378 20
07/16/16 Video View Kemp, Matt SD Samardzija, Jeff SF 3 PETCO Park PL 398 101.4 33.7 104.8 120 7 -1 0 392 30
07/17/16 Video View Kemp, Matt SD Cueto, Johnny SF 4 PETCO Park JE 400 101.5 25.7 98.5 83 -1 0 0 400 16
07/17/16 Video View Bethancourt, Christian SD Cueto, Johnny SF 4 PETCO Park PL 376 101.2 34.9 107.1 130 -7 0 0 383 30
07/17/16 Video View Solarte, Yangervis SD Strickland, Hunter SF 7 PETCO Park PL 354 100.9 26.0 56.0 62 0 0 0 354 25
09/22/16 Video View Dickerson, Alex SD Law, Derek SF 8 PETCO Park ND 411 106.3 32.6 70.9 124 0 -1 0 411 30
09/23/16 Video View Myers, Wil SD Suarez, Albert SF 1 PETCO Park JE 408 100.8 29.7 85.9 106 0 0 0 408 16
09/24/16 Video View Renfroe, Hunter SD Bumgarner, Madison SF 4 PETCO Park PL 395 104.1 25.0 106.6 72 0 0 0 395 30
09/24/16 Video View Norris, Derek SD Bumgarner, Madison SF 5 PETCO Park ND 394 108.0 25.3 119.5 69 -1 0 0 394 30
09/24/16 Video View Rosales, Adam SD Bumgarner, Madison SF 6 PETCO Park PL 367 101.7 26.7 119.8 68 -1 0 0 367 28
09/25/16 Video View Rosales, Adam SD Bach, Ty SF 3 PETCO Park JE/L 336 96.5 25.8 60.4 59 0 0 0 335 2
06/01/16 Video View Myers, Wil SD Paxton, James SEA 1 PETCO Park PL 416 105.7 25.8 75.0 77 5 -1 0 411 29
06/01/16 Video View Rosales, Adam SD Paxton, James SEA 1 PETCO Park ND 434 105.3 30.1 102.9 104 15 -2 0 421 30
06/01/16 Video View Ramirez, Alexei SD Peralta, Joel SEA 4 PETCO Park PL 373 97.7 32.8 111.0 100 5 -1 0 369 21
06/01/16 Video View Ramirez, Alexei SD Johnson, Steve SEA 6 PETCO Park PL 381 105.4 25.0 118.0 64 2 0 0 380 30
04/17/16 Video View Tomas, Yasmany ARI Erlin, Robbie SD 1 PETCO Park PL 383 102.1 25.5 71.9 71 0 0 0 383 27
04/17/16 Video View Drury, Brandon ARI Erlin, Robbie SD 4 PETCO Park PL 393 101.0 27.3 103.4 88 -1 1 0 393 23
04/17/16 Video View Tomas, Yasmany ARI Erlin, Robbie SD 6 PETCO Park PL 418 102.5 27.0 87.4 94 1 1 0 417 23
04/17/16 Video View Gosselin, Phil ARI Quackenbush, Kevin SD 8 PETCO Park JE 412 104.8 23.7 99.0 75 3 1 0 409 21
04/15/16 Video View Castillo, Welington ARI Shields, James SD 2 PETCO Park PL 362 99.0 30.6 109.3 103 -15 0 0 379 29
04/06/16 Video View Maeda, Kenta LAD Cashner, Andrew SD 4 PETCO Park PL 358 96.2 33.3 119.1 92 6 -1 0 353 20
04/06/16 Video View Puig, Yasiel LAD Villanueva, Carlos SD 8 PETCO Park PL 393 100.2 31.8 101.2 113 0 -2 0 395 25
04/22/16 Video View Grichuk, Randal STL Cashner, Andrew SD 4 PETCO Park PL 434 108.2 23.7 96.0 95 -2 -1 0 436 30
04/23/16 Video View Piscotty, Stephen STL Vargas, Cesar SD 6 PETCO Park PL 384 108.7 21.4 109.6 59 0 -1 0 385 24
04/23/16 Video View Hazelbaker, Jeremy STL Villanueva, Carlos SD 7 PETCO Park JE 416 105.2 21.9 87.7 78 3 -1 -1 413 18
04/23/16 Video View Gyorko, Jedd STL Villanueva, Carlos SD 8 PETCO Park ND 420 110.8 23.9 106.9 81 -5 0 0 425 30
04/24/16 Video View Gyorko, Jedd STL Quackenbush, Kevin SD 6 PETCO Park PL 388 99.0 30.5 64.2 80 19 -1 0 370 21
04/24/16 Video View Diaz, Aledmys STL Quackenbush, Kevin SD 6 PETCO Park PL 390 96.3 36.8 112.6 108 41 -2 0 350 2
05/03/16 Video View Blackmon, Charlie COL Cashner, Andrew SD 1 PETCO Park PL 404 107.9 23.0 74.3 66 0 0 0 405 29
05/05/16 Video View Granderson, Curtis NYM Rea, Colin SD 9 PETCO Park JE 409 101.9 25.3 91.9 84 0 0 0 409 12
05/05/16 Video View Cespedes, Yoenis NYM Hand, Brad SD 9 PETCO Park JE 368 110.2 21.1 122.0 49 -1 -1 0 369 24
05/07/16 Video View Cespedes, Yoenis NYM Shields, James SD 1 PETCO Park PL 357 96.8 32.8 124.3 88 6 -1 0 352 24
05/07/16 Video View Colon, Bartolo NYM Shields, James SD 2 PETCO Park PL 357 99.6 33.8 118.7 110 -11 -1 0 369 30
05/07/16 Video View Wright, David NYM Villanueva, Carlos SD 9 PETCO Park PL 373 107.3 22.8 117.4 58 -1 -1 0 375 26
05/07/16 Video View Conforto, Michael NYM Villanueva, Carlos SD 9 PETCO Park ND 420 111.3 26.4 64.2 86 -3 -1 0 423 30
05/08/16 Video View Cespedes, Yoenis NYM Cashner, Andrew SD 3 PETCO Park JE 373 108.4 21.3 113.6 53 0 -1 -1 374 17
05/17/16 Video View Crawford, Brandon SF Rea, Colin SD 2 PETCO Park PL 434 107.4 24.5 84.3 87 0 0 0 435 30
05/18/16 Video View Pence, Hunter SF Pomeranz, Drew SD 4 PETCO Park JE 359 97.7 35.7 69.6 120 -1 -2 0 362 22
05/19/16 Video View Crawford, Brandon SF Shields, James SD 7 PETCO Park JE 397 110.8 20.7 74.6 55 -1 0 0 398 25
05/20/16 Video View Puig, Yasiel LAD Villanueva, Carlos SD 5 PETCO Park PL 416 103.9 26.3 82.6 90 0 -1 0 417 28
05/20/16 Video View Turner, Justin LAD Maurer, Brandon SD 8 PETCO Park PL 338 94.6 29.9 58.0 72 0 -1 0 339 6
05/21/16 Video View Thompson, Trayce LAD Vargas, Cesar SD 7 PETCO Park PL 421 107.8 21.0 86.3 70 2 0 0 420 23
05/22/16 Video View Turner, Justin LAD Buchter, Ryan SD 7 PETCO Park PL 407 103.9 29.2 105.4 102 -2 -1 0 410 30
05/22/16 Video View Kendrick, Howard LAD Maurer, Brandon SD 8 PETCO Park JE 413 105.8 21.6 86.9 69 0 -1 0 413 14
06/01/16 Video View Cano, Robinson SEA Friedrich, Christian SD 1 PETCO Park JE 363 106.9 22.2 57.9 50 2 0 0 361 14
06/02/16 Video View Cruz, Nelson SEA Rea, Colin SD 4 PETCO Park ND 458 113.4 22.0 84.9 85 -1 0 0 459 30
06/02/16 Video View Lee, Dae-Ho SEA Hand, Brad SD 6 PETCO Park PL 363 99.2 32.6 115.0 103 -10 0 0 373 30
06/04/16 Video View Reynolds, Mark COL Cashner, Andrew SD 4 PETCO Park JE 407 101.9 27.6 89.4 106 -9 1 0 415 23
06/05/16 Video View Gonzalez, Carlos COL Perdomo, Luis SD 1 PETCO Park PL 438 109.3 21.7 88.8 83 1 0 0 438 28
06/05/16 Video View Arenado, Nolan COL Perdomo, Luis SD 5 PETCO Park PL 363 102.3 26.1 119.8 68 -4 0 0 367 30
06/05/16 Video View Gonzalez, Carlos COL Maurer, Brandon SD 9 PETCO Park PL 424 105.7 23.5 92.9 83 -1 0 0 424 26
06/13/16 Video View Prado, Martin MIA Rea, Colin SD 3 PETCO Park PL 382 100.3 27.5 106.4 87 -2 -1 0 385 26
06/14/16 Video View Mathis, Jeff MIA Pomeranz, Drew SD 1 PETCO Park PL 365 99.1 35.0 107.6 125 -7 -1 0 374 25
06/16/16 Video View Harper, Bryce WSH Johnson, Erik SD 3 PETCO Park PL 369 102.6 31.2 112.8 111 -23 0 0 393 30
06/16/16 Video View Ramos, Wilson WSH Johnson, Erik SD 3 PETCO Park JE/L 396 101.9 24.7 81.5 81 -2 0 0 398 26
06/16/16 Video View Rendon, Anthony WSH Johnson, Erik SD 6 PETCO Park PL 419 107.9 22.9 100.1 74 1 0 0 418 30
06/17/16 Video View Zimmerman, Ryan WSH Friedrich, Christian SD 3 PETCO Park ND 418 114.4 23.2 116.2 67 0 0 0 418 30
06/17/16 Video View Murphy, Daniel WSH Friedrich, Christian SD 6 PETCO Park JE 388 99.1 28.5 102.1 89 0 0 0 388 18
06/19/16 Video View Taylor, Michael WSH Pomeranz, Drew SD 1 PETCO Park JE 367 109.1 21.0 117.3 51 -1 1 0 368 12
06/19/16 Video View Espinosa, Danny WSH Pomeranz, Drew SD 5 PETCO Park PL 434 107.7 25.0 97.7 95 -3 2 0 435 30
06/19/16 Video View Taylor, Michael WSH Pomeranz, Drew SD 5 PETCO Park PL 361 105.9 23.2 123.7 56 -3 1 0 362 26
06/28/16 Video View Jones, Adam BAL Johnson, Erik SD 1 PETCO Park JE 399 106.1 22.4 78.3 65 -1 0 0 399 25
06/28/16 Video View Kim, Hyun Soo BAL Johnson, Erik SD 5 PETCO Park PL 391 109.3 22.3 68.0 59 0 0 0 391 28
06/28/16 Video View Davis, Chris BAL Villanueva, Carlos SD 6 PETCO Park PL 422 103.8 29.8 87.3 116 -3 0 0 425 27
06/29/16 Video View Trumbo, Mark BAL Friedrich, Christian SD 4 PETCO Park PL 398 106.9 34.3 107.9 141 -11 1 0 408 30
07/01/16 Video View McCann, Brian NYY Rea, Colin SD 6 PETCO Park PL 416 103.4 25.7 85.1 88 0 0 0 417 23
07/03/16 Video View Gregorius, Didi NYY Cashner, Andrew SD 4 PETCO Park PL 357 110.0 20.6 52.4 45 0 0 0 357 22
07/03/16 Video View Teixeira, Mark NYY Villanueva, Carlos SD 8 PETCO Park PL 337 102.2 39.5 65.7 151 -13 0 0 350 28
07/03/16 Video View Teixeira, Mark NYY Quackenbush, Kevin SD 9 PETCO Park PL 408 104.7 32.1 77.1 126 -6 0 0 414 30
07/16/16 Video View Pagan, Angel SF Perdomo, Luis SD 3 PETCO Park PL 407 106.9 24.7 71.7 76 3 0 0 405 30
07/16/16 Video View Williamson, Mac SF Villanueva, Carlos SD 6 PETCO Park PL/L 368 97.5 39.2 107.3 133 25 0 0 344 2
07/16/16 Video View Pena, Ramiro SF Villanueva, Carlos SD 6 PETCO Park PL 402 104.3 31.0 65.7 103 4 -1 0 399 30
07/16/16 Video View Posey, Buster SF Quackenbush, Kevin SD 10 PETCO Park PL 393 102.7 29.1 72.5 98 -7 0 0 400 30
07/17/16 Video View Gillaspie, Conor SF Jackson, Edwin SD 7 PETCO Park ND 416 107.4 27.2 70.2 89 -1 0 0 417 30
07/31/16 Video View Peraza, Jose CIN Clemens, Paul SD 2 PETCO Park ND 413 107.3 29.1 114.3 95 -1 1 0 413 30
08/01/16 Video View Perez, Hernan MIL Villanueva, Carlos SD 5 PETCO Park JE/L 385 99.8 26.4 77.3 76 0 0 0 384 22
08/01/16 Video View Carter, Chris MIL Hand, Brad SD 8 PETCO Park JE 412 102.9 25.8 97.4 85 1 0 0 410 21
08/02/16 Video View Braun, Ryan MIL Perdomo, Luis SD 6 PETCO Park PL 426 105.4 24.6 93.5 87 0 0 0 426 28
08/03/16 Video View Braun, Ryan MIL Jackson, Edwin SD 8 PETCO Park JE 409 100.0 30.0 89.6 103 4 1 0 405 8
08/05/16 Video View Rupp, Cameron PHI Friedrich, Christian SD 4 PETCO Park PL 429 108.9 21.1 87.1 70 0 0 -1 429 25
08/06/16 Video View Howard, Ryan PHI Clemens, Paul SD 2 PETCO Park JE 410 102.0 26.4 85.7 90 -1 0 0 411 18
08/06/16 Video View Paredes, Jimmy PHI Maurer, Brandon SD 9 PETCO Park PL 420 109.0 22.8 78.1 72 0 0 0 420 29
08/07/16 Video View Herrera, Odubel PHI Cosart, Jarred SD 1 PETCO Park PL 352 96.9 29.5 121.0 74 1 0 0 351 26
08/18/16 Video View Segura, Jean ARI Dominguez, Jose SD 6 PETCO Park PL 416 103.0 26.3 94.6 91 0 0 0 417 25
08/22/16 Video View Russell, Addison CHC Jackson, Edwin SD 2 PETCO Park PL 401 103.1 31.9 101.3 126 -8 0 0 409 30
08/22/16 Video View Bryant, Kris CHC Jackson, Edwin SD 5 PETCO Park PL 403 102.6 27.3 100.3 98 -5 0 0 409 30
08/22/16 Video View Heyward, Jason CHC Jackson, Edwin SD 5 PETCO Park JE 373 98.4 32.2 77.3 112 -10 0 0 384 27
08/23/16 Video View Bryant, Kris CHC Friedrich, Christian SD 3 PETCO Park JE 365 104.5 22.8 114.3 56 0 0 0 365 9
08/23/16 Video View Russell, Addison CHC Friedrich, Christian SD 5 PETCO Park PL 406 102.7 30.6 101.8 112 -2 0 0 409 30
08/24/16 Video View Contreras, Willson CHC Hand, Brad SD 7 PETCO Park PL 387 102.3 25.7 73.3 75 -1 0 0 388 28
09/05/16 Video View Young, Chris BOS Hand, Brad SD 8 PETCO Park PL 387 100.5 28.0 106.0 86 -1 0 0 388 27
09/06/16 Video View Bradley Jr., Jackie BOS Clemens, Paul SD 4 PETCO Park PL 401 106.5 24.9 70.6 73 -1 -1 0 402 30
09/06/16 Video View Young, Chris BOS Clemens, Paul SD 4 PETCO Park JE 349 109.0 20.3 126.3 45 -1 0 0 350 6
09/07/16 Video View Shaw, Travis BOS Cosart, Jarred SD 2 PETCO Park ND 431 113.2 25.0 63.4 72 7 -1 0 425 30
09/07/16 Video View Ramirez, Hanley BOS Smith, Jake SD 8 PETCO Park JE/L 357 95.1 30.2 115.4 76 7 -1 0 350 1
09/07/16 Video View Holt, Brock BOS Campos, Leonel SD 9 PETCO Park JE 406 104.4 24.8 77.2 72 3 0 0 404 28
09/08/16 Video View Adames, Cristhian COL Morrow, Brandon SD 9 PETCO Park PL 419 104.5 30.3 78.9 113 0 -1 0 419 29
09/09/16 Video View Blackmon, Charlie COL Perdomo, Luis SD 3 PETCO Park ND 376 108.4 23.5 55.7 58 -1 0 0 377 30
09/11/16 Video View Blackmon, Charlie COL Jackson, Edwin SD 4 PETCO Park PL 395 104.2 27.4 65.6 78 3 0 0 392 30
09/11/16 Video View Reynolds, Mark COL Quackenbush, Kevin SD 10 PETCO Park JE 378 104.6 22.2 105.8 59 1 0 0 378 9
09/20/16 Video View Goldschmidt, Paul ARI Clemens, Paul SD 6 PETCO Park PL 423 111.8 18.6 94.0 58 2 0 0 421 20
09/21/16 Video View Goldschmidt, Paul ARI Perdomo, Luis SD 1 PETCO Park PL 418 109.1 23.2 103.8 72 0 0 0 418 30
09/21/16 Video View Goldschmidt, Paul ARI Perdomo, Luis SD 6 PETCO Park PL 420 104.0 31.6 96.6 124 0 0 0 420 29
09/24/16 Video View Span, Denard SF Quackenbush, Kevin SD 10 PETCO Park JE 334 93.7 29.5 58.3 69 0 0 0 334 2
09/27/16 Video View Utley, Chase LAD Clemens, Paul SD 3 PETCO Park PL 399 106.3 24.3 71.5 70 0 1 0 398 30
09/28/16 Video View Utley, Chase LAD Perdomo, Luis SD 1 PETCO Park PL 369 100.5 25.9 112.4 67 0 1 0 368 17
09/28/16 Video View Gonzalez, Adrian LAD Perdomo, Luis SD 1 PETCO Park ND 418 109.4 29.5 60.6 96 0 1 0 417 30
09/28/16 Video View Pederson, Joc LAD Perdomo, Luis SD 4 PETCO Park ND 399 110.6 24.0 60.1 65 0 1 0 398 30
04/19/16 Video View Myers, Wil SD Liriano, Francisco PIT 4 PETCO Park PL 418 113.2 19.9 101.1 60 0 0 0 416 30
04/19/16 Video View Norris, Derek SD Liriano, Francisco PIT 5 PETCO Park PL 414 102.7 25.6 92.1 89 -1 0 0 415 20
04/19/16 Video View Rosales, Adam SD Caminero, Arquimedes PIT 5 PETCO Park PL 376 103.2 34.3 117.9 118 -10 1 0 384 30
04/20/16 Video View Kemp, Matt SD Locke, Jeff PIT 4 PETCO Park PL 424 108.3 20.8 94.7 72 4 0 0 420 23
08/05/16 Video View Ramirez, Alexei SD Hellickson, Jeremy PHI 7 PETCO Park JE 363 96.0 32.6 109.4 98 0 1 0 363 15
08/05/16 Video View Myers, Wil SD Neris, Hector PHI 8 PETCO Park PL 383 110.1 22.6 120.7 56 0 0 0 383 30
08/07/16 Video View Dickerson, Alex SD Eickhoff, Jerad PHI 4 PETCO Park PL 335 99.5 37.8 63.3 134 -19 0 0 354 26
08/07/16 Video View Schimpf, Ryan SD Eickhoff, Jerad PHI 6 PETCO Park JE 326 92.6 35.6 60.1 100 -7 0 0 333 5
07/01/16 Video View Schimpf, Ryan SD Eovaldi, Nathan NYY 2 PETCO Park JE 418 108.4 21.7 82.8 64 -2 0 0 420 25
07/01/16 Video View Myers, Wil SD Eovaldi, Nathan NYY 5 PETCO Park PL 412 104.6 25.7 76.9 77 3 0 0 409 29
07/02/16 Video View Upton Jr., Melvin SD Miller, Andrew NYY 9 PETCO Park ND 426 109.6 29.7 112.8 106 0 -1 0 427 30
07/03/16 Video View Solarte, Yangervis SD Green, Chad NYY 2 PETCO Park JE 353 98.3 27.1 117.6 68 -1 0 0 354 11
07/03/16 Video View Dickerson, Alex SD Swarzak, Anthony NYY 9 PETCO Park PL 429 107.0 29.2 79.7 115 -5 0 0 434 29
05/05/16 Video View Myers, Wil SD deGrom, Jacob NYM 1 PETCO Park PL 425 105.9 23.5 92.6 80 0 0 0 425 26
05/05/16 Video View Norris, Derek SD Verrett, Logan NYM 6 PETCO Park PL 397 105.5 26.8 113.3 80 0 0 0 398 30
05/07/16 Video View Jay, Jon SD Colon, Bartolo NYM 3 PETCO Park PL 416 102.5 25.6 88.0 87 3 -1 0 414 21
05/08/16 Video View Bethancourt, Christian SD Harvey, Matt NYM 5 PETCO Park ND 447 112.2 27.6 106.2 107 -2 -1 0 450 30
08/03/16 Video View Solarte, Yangervis SD Marinez, Jhan MIL 6 PETCO Park PL 408 105.2 33.0 76.5 131 -5 1 0 413 30
08/03/16 Video View Blash, Jabari SD Goforth, David MIL 7 PETCO Park JE 365 102.2 24.0 67.6 60 0 0 0 366 12
06/13/16 Video View Myers, Wil SD Chen, Wei-Yin MIA 1 PETCO Park PL/L 385 98.9 29.3 78.3 95 -2 0 0 388 26
06/13/16 Video View Kemp, Matt SD Chen, Wei-Yin MIA 3 PETCO Park JE 363 107.9 21.3 118.2 51 0 0 0 363 10
06/13/16 Video View Rosales, Adam SD Chen, Wei-Yin MIA 5 PETCO Park ND 421 109.1 27.2 110.6 93 -3 0 0 424 30
06/13/16 Video View Upton Jr., Melvin SD Chen, Wei-Yin MIA 6 PETCO Park PL 389 100.7 31.4 105.9 108 -3 -1 0 392 30
06/15/16 Video View Upton Jr., Melvin SD Nicolino, Justin MIA 2 PETCO Park PL 429 108.9 21.2 86.6 70 0 0 0 429 24
05/20/16 Video View Norris, Derek SD Kazmir, Scott LAD 5 PETCO Park PL 416 103.5 26.5 97.1 92 0 -1 0 416 29
05/20/16 Video View Bethancourt, Christian SD Kazmir, Scott LAD 6 PETCO Park PL 391 102.5 25.9 105.3 78 -1 -1 0 393 30
05/20/16 Video View Upton Jr., Melvin SD Jansen, Kenley LAD 9 PETCO Park PL 419 106.8 23.2 82.0 75 0 0 0 419 28
09/27/16 Video View Renfroe, Hunter SD Maeda, Kenta LAD 1 PETCO Park PL 375 101.2 36.4 110.8 131 0 3 0 372 29
09/27/16 Video View Renfroe, Hunter SD Coleman, Louis LAD 8 PETCO Park PL 425 109.0 20.3 88.4 65 0 0 0 425 27
09/28/16 Video View Renfroe, Hunter SD De Leon, Jose LAD 3 PETCO Park ND 413 108.4 31.9 119.5 109 0 1 0 412 30
05/03/16 Video View Kemp, Matt SD Butler, Eddie COL 4 PETCO Park PL 410 102.4 31.2 98.0 118 0 -2 0 411 29
05/03/16 Video View Wallace, Brett SD Butler, Eddie COL 4 PETCO Park PL 402 110.2 20.6 103.2 58 1 -1 0 402 26
06/03/16 Video View Kemp, Matt SD Rusin, Chris COL 1 PETCO Park ND 453 114.9 28.3 106.0 121 -11 -1 0 465 30
06/04/16 Video View Norris, Derek SD Bettis, Chad COL 2 PETCO Park PL 365 104.1 24.4 121.0 60 0 0 0 365 21
06/04/16 Video View Myers, Wil SD Bettis, Chad COL 1 PETCO Park JE 402 102.6 25.0 100.5 79 2 0 0 400 15
06/05/16 Video View Myers, Wil SD Gray, Jon COL 6 PETCO Park JE 405 101.9 26.2 95.7 91 -3 0 0 408 22
06/05/16 Video View Wallace, Brett SD Miller, Justin COL 9 PETCO Park JE 364 97.9 27.5 108.0 79 -5 0 0 369 17
09/08/16 Video View Schimpf, Ryan SD Hoffman, Jeff COL 3 PETCO Park JE 412 102.0 28.9 85.4 104 -1 -1 0 414 26
09/08/16 Video View Norris, Derek SD Bergman, Christian COL 8 PETCO Park PL 380 102.0 34.3 108.8 126 -6 0 0 387 30
09/09/16 Video View Dickerson, Alex SD Chatwood, Tyler COL 2 PETCO Park PL 425 104.7 26.0 85.2 91 0 -1 0 425 26
07/30/16 Video View Rosales, Adam SD Diaz, Jumbo CIN 10 PETCO Park JE 402 99.2 31.9 100.4 106 11 0 0 391 11
09/05/16 Video View Rosales, Adam SD Pomeranz, Drew BOS 4 PETCO Park JE 361 98.3 37.0 108.3 130 0 0 0 361 13
09/06/16 Video View Schimpf, Ryan SD Buchholz, Clay BOS 4 PETCO Park JE/L 367 100.3 36.6 76.1 139 -7 -1 0 375 24
06/28/16 Video View Upton Jr., Melvin SD Jimenez, Ubaldo BAL 1 PETCO Park ND 462 112.2 22.8 90.9 88 0 0 0 462 30
06/28/16 Video View Myers, Wil SD Drake, Oliver BAL 7 PETCO Park PL 372 97.9 32.2 71.4 102 -2 0 0 374 25
06/29/16 Video View Wallace, Brett SD Gallardo, Yovani BAL 6 PETCO Park PL 410 101.5 30.1 89.9 113 -3 0 0 413 23
06/06/16 Video View Solarte, Yangervis SD Perez, Williams ATL 3 PETCO Park PL 391 103.0 31.8 74.0 118 -10 -1 0 403 30
06/07/16 Video View Norris, Derek SD Vizcaino, Arodys ATL 9 PETCO Park JE 415 108.0 21.0 96.6 67 1 0 0 414 21
06/08/16 Video View Myers, Wil SD Teheran, Julio ATL 4 PETCO Park PL 409 102.8 28.8 102.5 101 1 0 0 408 30
06/08/16 Video View Myers, Wil SD Teheran, Julio ATL 6 PETCO Park ND 399 107.0 27.2 117.9 82 -1 0 0 401 30
04/16/16 Video View Kemp, Matt SD Buschmann, Matt ARI 3 PETCO Park PL 377 103.5 24.8 113.5 65 0 0 0 376 28
04/16/16 Video View Upton Jr., Melvin SD De La Rosa, Rubby ARI 14 PETCO Park JE 406 100.5 31.5 91.2 117 0 0 0 405 8
08/19/16 Video View Schimpf, Ryan SD Burgos, Enrique ARI 8 PETCO Park JE 398 102.1 24.6 98.6 74 0 0 0 398 12
08/19/16 Video View Schimpf, Ryan SD Corbin, Patrick ARI 10 PETCO Park PL 403 105.4 24.6 75.2 75 -1 0 0 404 29
08/20/16 Video View Kivlehan, Patrick SD Ray, Robbie ARI 5 PETCO Park ND 432 111.1 26.7 110.5 92 -2 0 0 434 30
08/21/16 Video View Jankowski, Travis SD Shipley, Braden ARI 3 PETCO Park PL 401 105.4 31.0 69.1 110 -8 0 0 409 30
08/21/16 Video View Dickerson, Alex SD Shipley, Braden ARI 6 PETCO Park ND 400 103.8 29.6 66.5 91 3 0 0 397 30
09/19/16 Video View Myers, Wil SD Shipley, Braden ARI 4 PETCO Park PL 357 101.1 25.9 58.9 64 -2 0 0 358 24
09/20/16 Video View Rosales, Adam SD Godley, Zack ARI 6 PETCO Park JE 366 98.1 27.3 110.0 73 0 0 0 366 10
09/21/16 Video View Myers, Wil SD Greinke, Zack ARI 3 PETCO Park PL 420 108.0 21.9 97.4 69 0 0 0 420 27


About HitTracker | Contact Us
© 2006-2016 HitTrackerOnline